sensor_id;sensor_type;location;lat;lon;timestamp;P1;durP1;ratioP1;P2;durP2;ratioP2
43118;SDS011;28729;49.838;8.650;2022-08-03T00:00:22;5.72;;;2.65;;
43118;SDS011;28729;49.838;8.650;2022-08-03T00:04:26;5.60;;;2.78;;
43118;SDS011;28729;49.838;8.650;2022-08-03T00:08:34;4.78;;;2.47;;
43118;SDS011;28729;49.838;8.650;2022-08-03T00:12:40;5.35;;;2.40;;
43118;SDS011;28729;49.838;8.650;2022-08-03T00:16:42;3.15;;;2.30;;
43118;SDS011;28729;49.838;8.650;2022-08-03T00:20:44;3.65;;;2.05;;
43118;SDS011;28729;49.838;8.650;2022-08-03T00:24:45;3.30;;;2.33;;
43118;SDS011;28729;49.838;8.650;2022-08-03T00:28:47;9.82;;;2.42;;
43118;SDS011;28729;49.838;8.650;2022-08-03T00:32:49;4.45;;;2.60;;
43118;SDS011;28729;49.838;8.650;2022-08-03T00:36:51;3.67;;;2.28;;
43118;SDS011;28729;49.838;8.650;2022-08-03T00:40:52;5.50;;;2.38;;
43118;SDS011;28729;49.838;8.650;2022-08-03T00:44:54;4.03;;;2.20;;
43118;SDS011;28729;49.838;8.650;2022-08-03T00:48:55;3.15;;;2.17;;
43118;SDS011;28729;49.838;8.650;2022-08-03T00:52:58;9.30;;;2.67;;
43118;SDS011;28729;49.838;8.650;2022-08-03T00:57:00;3.40;;;2.42;;
43118;SDS011;28729;49.838;8.650;2022-08-03T01:01:02;2.63;;;1.70;;
43118;SDS011;28729;49.838;8.650;2022-08-03T01:05:08;5.55;;;2.10;;
43118;SDS011;28729;49.838;8.650;2022-08-03T01:13:20;3.45;;;2.05;;
43118;SDS011;28729;49.838;8.650;2022-08-03T01:17:59;4.10;;;2.05;;
43118;SDS011;28729;49.838;8.650;2022-08-03T01:26:52;2.63;;;1.95;;
43118;SDS011;28729;49.838;8.650;2022-08-03T01:30:55;4.60;;;2.10;;
43118;SDS011;28729;49.838;8.650;2022-08-03T01:35:04;3.13;;;2.22;;
43118;SDS011;28729;49.838;8.650;2022-08-03T01:39:09;2.63;;;1.95;;
43118;SDS011;28729;49.838;8.650;2022-08-03T01:43:15;3.63;;;1.77;;
43118;SDS011;28729;49.838;8.650;2022-08-03T01:47:37;2.78;;;1.77;;
43118;SDS011;28729;49.838;8.650;2022-08-03T01:51:41;2.95;;;2.03;;
43118;SDS011;28729;49.838;8.650;2022-08-03T02:00:06;2.40;;;1.63;;
43118;SDS011;28729;49.838;8.650;2022-08-03T02:04:13;4.45;;;1.77;;
43118;SDS011;28729;49.838;8.650;2022-08-03T02:08:18;2.33;;;1.70;;
43118;SDS011;28729;49.838;8.650;2022-08-03T02:12:24;4.80;;;2.40;;
43118;SDS011;28729;49.838;8.650;2022-08-03T02:16:28;3.80;;;2.10;;
43118;SDS011;28729;49.838;8.650;2022-08-03T02:20:31;3.03;;;2.05;;
43118;SDS011;28729;49.838;8.650;2022-08-03T02:24:36;2.78;;;1.52;;
43118;SDS011;28729;49.838;8.650;2022-08-03T02:28:39;4.37;;;2.00;;
43118;SDS011;28729;49.838;8.650;2022-08-03T02:32:45;3.80;;;1.90;;
43118;SDS011;28729;49.838;8.650;2022-08-03T02:36:51;2.75;;;1.90;;
43118;SDS011;28729;49.838;8.650;2022-08-03T02:40:56;3.75;;;1.88;;
43118;SDS011;28729;49.838;8.650;2022-08-03T02:49:03;4.28;;;1.58;;
43118;SDS011;28729;49.838;8.650;2022-08-03T02:53:26;4.13;;;2.15;;
43118;SDS011;28729;49.838;8.650;2022-08-03T02:57:30;3.60;;;1.73;;
43118;SDS011;28729;49.838;8.650;2022-08-03T03:01:49;3.25;;;1.85;;
43118;SDS011;28729;49.838;8.650;2022-08-03T03:10:00;3.92;;;1.92;;
43118;SDS011;28729;49.838;8.650;2022-08-03T03:14:03;2.90;;;1.98;;
43118;SDS011;28729;49.838;8.650;2022-08-03T03:18:08;2.78;;;1.90;;
43118;SDS011;28729;49.838;8.650;2022-08-03T03:22:12;4.10;;;2.53;;
43118;SDS011;28729;49.838;8.650;2022-08-03T03:26:16;3.47;;;2.08;;
43118;SDS011;28729;49.838;8.650;2022-08-03T03:30:18;2.88;;;1.98;;
43118;SDS011;28729;49.838;8.650;2022-08-03T03:34:20;2.78;;;2.10;;
43118;SDS011;28729;49.838;8.650;2022-08-03T03:38:23;6.35;;;2.25;;
43118;SDS011;28729;49.838;8.650;2022-08-03T03:46:28;2.75;;;1.90;;
43118;SDS011;28729;49.838;8.650;2022-08-03T03:50:30;2.88;;;1.73;;
43118;SDS011;28729;49.838;8.650;2022-08-03T03:58:44;2.67;;;1.85;;
43118;SDS011;28729;49.838;8.650;2022-08-03T04:02:45;3.08;;;1.98;;
43118;SDS011;28729;49.838;8.650;2022-08-03T04:06:47;2.92;;;2.30;;
43118;SDS011;28729;49.838;8.650;2022-08-03T04:11:10;2.95;;;2.15;;
43118;SDS011;28729;49.838;8.650;2022-08-03T04:15:20;4.05;;;2.30;;
43118;SDS011;28729;49.838;8.650;2022-08-03T04:19:29;3.15;;;2.33;;
43118;SDS011;28729;49.838;8.650;2022-08-03T04:23:39;3.75;;;2.13;;
43118;SDS011;28729;49.838;8.650;2022-08-03T04:27:45;3.58;;;1.85;;
43118;SDS011;28729;49.838;8.650;2022-08-03T04:32:09;3.30;;;1.80;;
43118;SDS011;28729;49.838;8.650;2022-08-03T04:36:14;2.67;;;1.92;;
43118;SDS011;28729;49.838;8.650;2022-08-03T04:40:22;2.88;;;1.95;;
43118;SDS011;28729;49.838;8.650;2022-08-03T04:44:30;4.20;;;2.60;;
43118;SDS011;28729;49.838;8.650;2022-08-03T04:48:37;2.42;;;1.75;;
43118;SDS011;28729;49.838;8.650;2022-08-03T04:52:44;3.80;;;2.40;;
43118;SDS011;28729;49.838;8.650;2022-08-03T04:56:46;4.18;;;2.00;;
43118;SDS011;28729;49.838;8.650;2022-08-03T05:00:48;3.13;;;1.77;;
43118;SDS011;28729;49.838;8.650;2022-08-03T05:04:51;4.80;;;2.00;;
43118;SDS011;28729;49.838;8.650;2022-08-03T05:08:56;3.88;;;2.10;;
43118;SDS011;28729;49.838;8.650;2022-08-03T05:12:57;4.20;;;2.20;;
43118;SDS011;28729;49.838;8.650;2022-08-03T05:16:59;4.68;;;2.35;;
43118;SDS011;28729;49.838;8.650;2022-08-03T05:21:01;6.88;;;2.35;;
43118;SDS011;28729;49.838;8.650;2022-08-03T05:25:04;4.70;;;2.10;;
43118;SDS011;28729;49.838;8.650;2022-08-03T05:29:06;3.40;;;2.35;;
43118;SDS011;28729;49.838;8.650;2022-08-03T05:33:08;3.97;;;2.55;;
43118;SDS011;28729;49.838;8.650;2022-08-03T05:37:10;4.90;;;2.75;;
43118;SDS011;28729;49.838;8.650;2022-08-03T05:41:12;3.22;;;1.92;;
43118;SDS011;28729;49.838;8.650;2022-08-03T05:45:23;4.70;;;2.05;;
43118;SDS011;28729;49.838;8.650;2022-08-03T05:49:29;4.72;;;1.95;;
43118;SDS011;28729;49.838;8.650;2022-08-03T05:53:33;4.00;;;2.08;;
43118;SDS011;28729;49.838;8.650;2022-08-03T05:57:35;8.57;;;2.65;;
43118;SDS011;28729;49.838;8.650;2022-08-03T06:01:37;5.28;;;2.15;;
43118;SDS011;28729;49.838;8.650;2022-08-03T06:05:39;6.18;;;2.30;;
43118;SDS011;28729;49.838;8.650;2022-08-03T06:10:00;4.57;;;1.75;;
43118;SDS011;28729;49.838;8.650;2022-08-03T06:14:23;5.13;;;2.40;;
43118;SDS011;28729;49.838;8.650;2022-08-03T06:18:25;3.83;;;2.47;;
43118;SDS011;28729;49.838;8.650;2022-08-03T06:22:26;4.55;;;2.47;;
43118;SDS011;28729;49.838;8.650;2022-08-03T06:26:28;4.32;;;2.35;;
43118;SDS011;28729;49.838;8.650;2022-08-03T06:30:30;5.47;;;2.45;;
43118;SDS011;28729;49.838;8.650;2022-08-03T06:34:32;4.97;;;2.38;;
43118;SDS011;28729;49.838;8.650;2022-08-03T06:38:36;5.55;;;2.47;;
43118;SDS011;28729;49.838;8.650;2022-08-03T06:42:37;6.60;;;2.80;;
43118;SDS011;28729;49.838;8.650;2022-08-03T06:46:39;4.97;;;2.20;;
43118;SDS011;28729;49.838;8.650;2022-08-03T06:50:41;6.78;;;2.60;;
43118;SDS011;28729;49.838;8.650;2022-08-03T06:54:44;7.53;;;2.60;;
43118;SDS011;28729;49.838;8.650;2022-08-03T06:58:46;4.00;;;2.40;;
43118;SDS011;28729;49.838;8.650;2022-08-03T07:02:48;4.25;;;2.63;;
43118;SDS011;28729;49.838;8.650;2022-08-03T07:06:56;4.30;;;2.42;;
43118;SDS011;28729;49.838;8.650;2022-08-03T07:10:58;4.75;;;2.90;;
43118;SDS011;28729;49.838;8.650;2022-08-03T07:15:00;3.17;;;2.33;;
43118;SDS011;28729;49.838;8.650;2022-08-03T07:19:03;3.72;;;2.40;;
43118;SDS011;28729;49.838;8.650;2022-08-03T07:23:05;6.27;;;2.57;;
43118;SDS011;28729;49.838;8.650;2022-08-03T07:27:07;5.73;;;2.83;;
43118;SDS011;28729;49.838;8.650;2022-08-03T07:31:10;7.90;;;2.88;;
43118;SDS011;28729;49.838;8.650;2022-08-03T07:35:11;8.37;;;2.63;;
43118;SDS011;28729;49.838;8.650;2022-08-03T07:39:25;3.30;;;2.38;;
43118;SDS011;28729;49.838;8.650;2022-08-03T07:43:27;6.00;;;2.50;;
43118;SDS011;28729;49.838;8.650;2022-08-03T07:47:29;4.83;;;2.70;;
43118;SDS011;28729;49.838;8.650;2022-08-03T07:51:35;5.32;;;2.95;;
43118;SDS011;28729;49.838;8.650;2022-08-03T07:55:37;6.22;;;2.83;;
43118;SDS011;28729;49.838;8.650;2022-08-03T07:59:39;10.53;;;2.67;;
43118;SDS011;28729;49.838;8.650;2022-08-03T08:04:01;4.20;;;2.83;;
43118;SDS011;28729;49.838;8.650;2022-08-03T08:08:03;5.33;;;2.90;;
43118;SDS011;28729;49.838;8.650;2022-08-03T08:12:07;5.15;;;2.88;;
43118;SDS011;28729;49.838;8.650;2022-08-03T08:16:16;6.18;;;2.60;;
43118;SDS011;28729;49.838;8.650;2022-08-03T08:20:23;7.57;;;3.17;;
43118;SDS011;28729;49.838;8.650;2022-08-03T08:24:31;6.80;;;3.50;;
43118;SDS011;28729;49.838;8.650;2022-08-03T08:28:36;6.50;;;2.97;;
43118;SDS011;28729;49.838;8.650;2022-08-03T08:32:37;6.15;;;3.40;;
43118;SDS011;28729;49.838;8.650;2022-08-03T08:36:39;9.10;;;3.53;;
43118;SDS011;28729;49.838;8.650;2022-08-03T08:40:41;13.75;;;4.55;;
43118;SDS011;28729;49.838;8.650;2022-08-03T08:44:43;8.32;;;3.42;;
43118;SDS011;28729;49.838;8.650;2022-08-03T08:48:44;4.47;;;2.78;;
43118;SDS011;28729;49.838;8.650;2022-08-03T08:52:49;7.90;;;3.20;;
43118;SDS011;28729;49.838;8.650;2022-08-03T08:56:54;6.18;;;2.88;;
43118;SDS011;28729;49.838;8.650;2022-08-03T09:00:57;5.32;;;3.17;;
43118;SDS011;28729;49.838;8.650;2022-08-03T09:04:59;7.82;;;2.80;;
43118;SDS011;28729;49.838;8.650;2022-08-03T09:09:07;4.32;;;2.85;;
43118;SDS011;28729;49.838;8.650;2022-08-03T09:13:30;4.72;;;2.83;;
43118;SDS011;28729;49.838;8.650;2022-08-03T09:17:40;6.57;;;2.90;;
43118;SDS011;28729;49.838;8.650;2022-08-03T09:21:41;9.25;;;3.17;;
43118;SDS011;28729;49.838;8.650;2022-08-03T09:25:43;7.47;;;2.75;;
43118;SDS011;28729;49.838;8.650;2022-08-03T09:29:47;5.32;;;3.17;;
43118;SDS011;28729;49.838;8.650;2022-08-03T09:33:50;3.55;;;2.58;;
43118;SDS011;28729;49.838;8.650;2022-08-03T09:38:07;8.00;;;2.90;;
43118;SDS011;28729;49.838;8.650;2022-08-03T09:42:15;6.25;;;2.65;;
43118;SDS011;28729;49.838;8.650;2022-08-03T09:46:24;4.63;;;2.90;;
43118;SDS011;28729;49.838;8.650;2022-08-03T09:50:26;8.15;;;3.13;;
43118;SDS011;28729;49.838;8.650;2022-08-03T09:54:29;6.03;;;2.88;;
43118;SDS011;28729;49.838;8.650;2022-08-03T09:58:31;7.05;;;2.42;;
43118;SDS011;28729;49.838;8.650;2022-08-03T10:02:33;4.00;;;3.00;;
43118;SDS011;28729;49.838;8.650;2022-08-03T10:06:35;7.85;;;3.47;;
43118;SDS011;28729;49.838;8.650;2022-08-03T10:10:40;4.25;;;2.85;;
43118;SDS011;28729;49.838;8.650;2022-08-03T10:14:44;7.65;;;3.15;;
43118;SDS011;28729;49.838;8.650;2022-08-03T10:18:47;3.45;;;3.03;;
43118;SDS011;28729;49.838;8.650;2022-08-03T10:22:48;4.00;;;2.60;;
43118;SDS011;28729;49.838;8.650;2022-08-03T10:26:50;2.90;;;2.40;;
43118;SDS011;28729;49.838;8.650;2022-08-03T10:30:57;4.05;;;3.40;;
43118;SDS011;28729;49.838;8.650;2022-08-03T10:35:05;3.13;;;2.83;;
43118;SDS011;28729;49.838;8.650;2022-08-03T10:43:26;3.70;;;3.30;;
43118;SDS011;28729;49.838;8.650;2022-08-03T10:47:36;5.18;;;3.20;;
43118;SDS011;28729;49.838;8.650;2022-08-03T10:51:38;4.50;;;3.20;;
43118;SDS011;28729;49.838;8.650;2022-08-03T10:55:42;3.95;;;3.22;;
43118;SDS011;28729;49.838;8.650;2022-08-03T11:00:05;6.90;;;2.92;;
43118;SDS011;28729;49.838;8.650;2022-08-03T11:04:18;5.57;;;3.58;;
43118;SDS011;28729;49.838;8.650;2022-08-03T11:12:30;7.78;;;3.45;;
43118;SDS011;28729;49.838;8.650;2022-08-03T11:16:37;7.78;;;3.58;;
43118;SDS011;28729;49.838;8.650;2022-08-03T11:20:43;4.05;;;3.10;;
43118;SDS011;28729;49.838;8.650;2022-08-03T11:29:10;7.18;;;2.90;;
43118;SDS011;28729;49.838;8.650;2022-08-03T11:33:30;4.30;;;3.30;;
43118;SDS011;28729;49.838;8.650;2022-08-03T11:37:32;4.50;;;3.28;;
43118;SDS011;28729;49.838;8.650;2022-08-03T11:41:34;4.53;;;3.30;;
43118;SDS011;28729;49.838;8.650;2022-08-03T11:45:55;4.13;;;3.27;;
43118;SDS011;28729;49.838;8.650;2022-08-03T11:50:04;3.08;;;2.78;;
43118;SDS011;28729;49.838;8.650;2022-08-03T11:54:06;5.18;;;3.20;;
43118;SDS011;28729;49.838;8.650;2022-08-03T11:58:17;5.38;;;3.22;;
43118;SDS011;28729;49.838;8.650;2022-08-03T12:02:52;5.95;;;3.58;;
43118;SDS011;28729;49.838;8.650;2022-08-03T12:06:59;8.45;;;3.33;;
43118;SDS011;28729;49.838;8.650;2022-08-03T12:11:03;4.60;;;2.88;;
43118;SDS011;28729;49.838;8.650;2022-08-03T12:15:07;5.90;;;3.15;;
43118;SDS011;28729;49.838;8.650;2022-08-03T12:19:09;3.55;;;2.83;;
43118;SDS011;28729;49.838;8.650;2022-08-03T12:23:11;4.90;;;2.72;;
43118;SDS011;28729;49.838;8.650;2022-08-03T12:27:23;5.65;;;2.88;;
43118;SDS011;28729;49.838;8.650;2022-08-03T12:31:25;4.00;;;3.00;;
43118;SDS011;28729;49.838;8.650;2022-08-03T12:35:27;4.43;;;3.40;;
43118;SDS011;28729;49.838;8.650;2022-08-03T12:39:29;3.70;;;3.05;;
43118;SDS011;28729;49.838;8.650;2022-08-03T12:43:31;5.63;;;2.90;;
43118;SDS011;28729;49.838;8.650;2022-08-03T12:47:52;4.78;;;2.83;;
43118;SDS011;28729;49.838;8.650;2022-08-03T12:51:57;5.30;;;2.80;;
43118;SDS011;28729;49.838;8.650;2022-08-03T12:56:09;4.18;;;3.10;;
43118;SDS011;28729;49.838;8.650;2022-08-03T13:00:12;5.88;;;3.05;;
43118;SDS011;28729;49.838;8.650;2022-08-03T13:04:31;6.38;;;2.88;;
43118;SDS011;28729;49.838;8.650;2022-08-03T13:08:34;3.20;;;2.53;;
43118;SDS011;28729;49.838;8.650;2022-08-03T13:12:48;3.38;;;2.63;;
43118;SDS011;28729;49.838;8.650;2022-08-03T13:16:50;4.22;;;2.70;;
43118;SDS011;28729;49.838;8.650;2022-08-03T13:20:52;6.88;;;2.70;;
43118;SDS011;28729;49.838;8.650;2022-08-03T13:24:54;3.00;;;2.28;;
43118;SDS011;28729;49.838;8.650;2022-08-03T13:29:01;4.82;;;2.50;;
43118;SDS011;28729;49.838;8.650;2022-08-03T13:33:04;4.38;;;2.88;;
43118;SDS011;28729;49.838;8.650;2022-08-03T13:37:06;5.07;;;2.40;;
43118;SDS011;28729;49.838;8.650;2022-08-03T13:41:10;5.47;;;2.70;;
43118;SDS011;28729;49.838;8.650;2022-08-03T13:45:16;6.38;;;2.80;;
43118;SDS011;28729;49.838;8.650;2022-08-03T13:49:18;3.08;;;2.40;;
43118;SDS011;28729;49.838;8.650;2022-08-03T13:53:20;4.65;;;2.42;;
43118;SDS011;28729;49.838;8.650;2022-08-03T13:57:22;4.28;;;2.50;;
43118;SDS011;28729;49.838;8.650;2022-08-03T14:01:43;5.97;;;2.50;;
43118;SDS011;28729;49.838;8.650;2022-08-03T14:05:55;5.22;;;2.20;;
43118;SDS011;28729;49.838;8.650;2022-08-03T14:09:57;4.20;;;3.03;;
43118;SDS011;28729;49.838;8.650;2022-08-03T14:14:00;3.08;;;2.38;;
43118;SDS011;28729;49.838;8.650;2022-08-03T14:18:02;3.05;;;2.50;;
43118;SDS011;28729;49.838;8.650;2022-08-03T14:22:03;3.65;;;2.30;;
43118;SDS011;28729;49.838;8.650;2022-08-03T14:26:07;2.75;;;2.45;;
43118;SDS011;28729;49.838;8.650;2022-08-03T14:30:09;2.60;;;2.40;;
43118;SDS011;28729;49.838;8.650;2022-08-03T14:34:12;4.32;;;2.63;;
43118;SDS011;28729;49.838;8.650;2022-08-03T14:38:13;2.58;;;2.38;;
43118;SDS011;28729;49.838;8.650;2022-08-03T14:42:16;7.03;;;2.35;;
43118;SDS011;28729;49.838;8.650;2022-08-03T14:46:19;2.95;;;2.58;;
43118;SDS011;28729;49.838;8.650;2022-08-03T14:50:21;6.90;;;3.33;;
43118;SDS011;28729;49.838;8.650;2022-08-03T14:54:41;4.13;;;2.67;;
43118;SDS011;28729;49.838;8.650;2022-08-03T14:58:42;5.03;;;2.90;;
43118;SDS011;28729;49.838;8.650;2022-08-03T15:02:44;3.22;;;2.92;;
43118;SDS011;28729;49.838;8.650;2022-08-03T15:06:46;4.10;;;2.58;;
43118;SDS011;28729;49.838;8.650;2022-08-03T15:10:52;4.88;;;2.90;;
43118;SDS011;28729;49.838;8.650;2022-08-03T15:14:56;4.78;;;2.78;;
43118;SDS011;28729;49.838;8.650;2022-08-03T15:18:58;7.28;;;3.08;;
43118;SDS011;28729;49.838;8.650;2022-08-03T15:23:01;5.22;;;3.03;;
43118;SDS011;28729;49.838;8.650;2022-08-03T15:27:02;3.03;;;2.55;;
43118;SDS011;28729;49.838;8.650;2022-08-03T15:31:11;4.30;;;2.90;;
43118;SDS011;28729;49.838;8.650;2022-08-03T15:35:22;7.30;;;3.07;;
43118;SDS011;28729;49.838;8.650;2022-08-03T15:39:24;6.35;;;3.15;;
43118;SDS011;28729;49.838;8.650;2022-08-03T15:43:25;5.68;;;2.65;;
43118;SDS011;28729;49.838;8.650;2022-08-03T15:47:27;4.45;;;3.05;;
43118;SDS011;28729;49.838;8.650;2022-08-03T15:51:28;6.47;;;2.85;;
43118;SDS011;28729;49.838;8.650;2022-08-03T15:55:30;4.43;;;2.95;;
43118;SDS011;28729;49.838;8.650;2022-08-03T15:59:33;4.78;;;3.40;;
43118;SDS011;28729;49.838;8.650;2022-08-03T16:03:35;4.35;;;2.85;;
43118;SDS011;28729;49.838;8.650;2022-08-03T16:07:36;5.28;;;3.20;;
43118;SDS011;28729;49.838;8.650;2022-08-03T16:12:04;3.88;;;3.03;;
43118;SDS011;28729;49.838;8.650;2022-08-03T16:16:18;3.08;;;2.78;;
43118;SDS011;28729;49.838;8.650;2022-08-03T16:20:20;3.15;;;2.85;;
43118;SDS011;28729;49.838;8.650;2022-08-03T16:24:34;8.07;;;3.03;;
43118;SDS011;28729;49.838;8.650;2022-08-03T16:28:39;5.55;;;2.75;;
43118;SDS011;28729;49.838;8.650;2022-08-03T16:32:41;4.10;;;2.63;;
43118;SDS011;28729;49.838;8.650;2022-08-03T16:36:45;4.53;;;2.97;;
43118;SDS011;28729;49.838;8.650;2022-08-03T16:40:47;5.18;;;2.92;;
43118;SDS011;28729;49.838;8.650;2022-08-03T16:44:52;6.50;;;2.58;;
43118;SDS011;28729;49.838;8.650;2022-08-03T16:52:55;4.03;;;3.00;;
43118;SDS011;28729;49.838;8.650;2022-08-03T17:00:58;3.17;;;2.53;;
43118;SDS011;28729;49.838;8.650;2022-08-03T17:05:11;6.18;;;2.67;;
43118;SDS011;28729;49.838;8.650;2022-08-03T17:09:15;7.70;;;2.97;;
43118;SDS011;28729;49.838;8.650;2022-08-03T17:13:20;3.15;;;2.58;;
43118;SDS011;28729;49.838;8.650;2022-08-03T17:17:27;7.35;;;2.53;;
43118;SDS011;28729;49.838;8.650;2022-08-03T17:21:48;4.70;;;2.75;;
43118;SDS011;28729;49.838;8.650;2022-08-03T17:25:58;3.30;;;2.38;;
43118;SDS011;28729;49.838;8.650;2022-08-03T17:30:05;4.15;;;2.70;;
43118;SDS011;28729;49.838;8.650;2022-08-03T17:34:09;3.80;;;2.75;;
43118;SDS011;28729;49.838;8.650;2022-08-03T17:38:11;3.78;;;2.60;;
43118;SDS011;28729;49.838;8.650;2022-08-03T17:42:17;8.63;;;2.65;;
43118;SDS011;28729;49.838;8.650;2022-08-03T17:46:33;4.95;;;2.60;;
43118;SDS011;28729;49.838;8.650;2022-08-03T17:50:43;5.10;;;2.25;;
43118;SDS011;28729;49.838;8.650;2022-08-03T17:59:20;3.67;;;2.40;;
43118;SDS011;28729;49.838;8.650;2022-08-03T18:03:54;7.97;;;2.30;;
43118;SDS011;28729;49.838;8.650;2022-08-03T18:08:00;7.47;;;2.83;;
43118;SDS011;28729;49.838;8.650;2022-08-03T18:12:09;3.88;;;2.33;;
43118;SDS011;28729;49.838;8.650;2022-08-03T18:16:17;5.82;;;2.70;;
43118;SDS011;28729;49.838;8.650;2022-08-03T18:20:26;5.43;;;2.97;;
43118;SDS011;28729;49.838;8.650;2022-08-03T18:24:39;6.40;;;3.13;;
43118;SDS011;28729;49.838;8.650;2022-08-03T18:28:42;6.32;;;3.35;;
43118;SDS011;28729;49.838;8.650;2022-08-03T18:32:45;3.67;;;2.28;;
43118;SDS011;28729;49.838;8.650;2022-08-03T18:37:07;3.40;;;2.30;;
43118;SDS011;28729;49.838;8.650;2022-08-03T18:45:19;4.50;;;2.33;;
43118;SDS011;28729;49.838;8.650;2022-08-03T18:54:42;4.32;;;2.40;;
43118;SDS011;28729;49.838;8.650;2022-08-03T18:59:18;3.95;;;2.28;;
43118;SDS011;28729;49.838;8.650;2022-08-03T19:03:32;3.90;;;2.30;;
43118;SDS011;28729;49.838;8.650;2022-08-03T19:07:57;5.90;;;2.42;;
43118;SDS011;28729;49.838;8.650;2022-08-03T19:12:08;4.88;;;2.47;;
43118;SDS011;28729;49.838;8.650;2022-08-03T19:16:40;3.08;;;2.25;;
43118;SDS011;28729;49.838;8.650;2022-08-03T19:20:48;4.28;;;2.00;;
43118;SDS011;28729;49.838;8.650;2022-08-03T19:24:54;2.50;;;2.03;;
43118;SDS011;28729;49.838;8.650;2022-08-03T19:29:00;6.93;;;2.78;;
43118;SDS011;28729;49.838;8.650;2022-08-03T19:33:02;4.75;;;2.22;;
43118;SDS011;28729;49.838;8.650;2022-08-03T19:37:09;8.07;;;2.55;;
43118;SDS011;28729;49.838;8.650;2022-08-03T19:41:15;7.20;;;2.65;;
43118;SDS011;28729;49.838;8.650;2022-08-03T19:45:22;6.35;;;2.30;;
43118;SDS011;28729;49.838;8.650;2022-08-03T19:49:48;3.08;;;2.10;;
43118;SDS011;28729;49.838;8.650;2022-08-03T19:54:08;2.70;;;2.10;;
43118;SDS011;28729;49.838;8.650;2022-08-03T19:58:13;6.38;;;2.40;;
43118;SDS011;28729;49.838;8.650;2022-08-03T20:02:25;4.20;;;2.33;;
43118;SDS011;28729;49.838;8.650;2022-08-03T20:06:30;5.13;;;2.17;;
43118;SDS011;28729;49.838;8.650;2022-08-03T20:10:32;5.72;;;2.38;;
43118;SDS011;28729;49.838;8.650;2022-08-03T20:14:38;4.15;;;2.00;;
43118;SDS011;28729;49.838;8.650;2022-08-03T20:18:41;3.83;;;2.10;;
43118;SDS011;28729;49.838;8.650;2022-08-03T20:22:44;2.78;;;2.08;;
43118;SDS011;28729;49.838;8.650;2022-08-03T20:26:50;2.72;;;2.00;;
43118;SDS011;28729;49.838;8.650;2022-08-03T20:30:53;5.30;;;2.00;;
43118;SDS011;28729;49.838;8.650;2022-08-03T20:34:55;5.13;;;2.05;;
43118;SDS011;28729;49.838;8.650;2022-08-03T20:38:58;7.22;;;2.05;;
43118;SDS011;28729;49.838;8.650;2022-08-03T20:43:00;5.32;;;1.88;;
43118;SDS011;28729;49.838;8.650;2022-08-03T20:47:02;3.93;;;2.30;;
43118;SDS011;28729;49.838;8.650;2022-08-03T20:51:10;4.38;;;2.30;;
43118;SDS011;28729;49.838;8.650;2022-08-03T20:55:32;3.78;;;2.60;;
43118;SDS011;28729;49.838;8.650;2022-08-03T20:59:55;3.50;;;2.58;;
43118;SDS011;28729;49.838;8.650;2022-08-03T21:03:57;3.22;;;2.03;;
43118;SDS011;28729;49.838;8.650;2022-08-03T21:08:04;3.92;;;2.35;;
43118;SDS011;28729;49.838;8.650;2022-08-03T21:12:10;8.57;;;2.63;;
43118;SDS011;28729;49.838;8.650;2022-08-03T21:16:18;3.58;;;2.20;;
43118;SDS011;28729;49.838;8.650;2022-08-03T21:20:26;3.00;;;2.47;;
43118;SDS011;28729;49.838;8.650;2022-08-03T21:24:31;4.60;;;2.60;;
43118;SDS011;28729;49.838;8.650;2022-08-03T21:28:33;3.92;;;2.53;;
43118;SDS011;28729;49.838;8.650;2022-08-03T21:32:35;4.22;;;2.50;;
43118;SDS011;28729;49.838;8.650;2022-08-03T21:36:40;6.65;;;2.50;;
43118;SDS011;28729;49.838;8.650;2022-08-03T21:40:42;2.65;;;2.25;;
43118;SDS011;28729;49.838;8.650;2022-08-03T21:44:45;5.18;;;2.33;;
43118;SDS011;28729;49.838;8.650;2022-08-03T21:48:47;3.30;;;2.20;;
43118;SDS011;28729;49.838;8.650;2022-08-03T21:53:19;7.47;;;2.63;;
43118;SDS011;28729;49.838;8.650;2022-08-03T21:57:23;4.70;;;2.50;;
43118;SDS011;28729;49.838;8.650;2022-08-03T22:01:27;6.18;;;2.78;;
43118;SDS011;28729;49.838;8.650;2022-08-03T22:05:35;3.08;;;2.30;;
43118;SDS011;28729;49.838;8.650;2022-08-03T22:09:45;5.47;;;2.70;;
43118;SDS011;28729;49.838;8.650;2022-08-03T22:13:51;6.13;;;2.58;;
43118;SDS011;28729;49.838;8.650;2022-08-03T22:17:53;3.97;;;2.40;;
43118;SDS011;28729;49.838;8.650;2022-08-03T22:21:58;4.57;;;2.33;;
43118;SDS011;28729;49.838;8.650;2022-08-03T22:26:03;3.70;;;2.63;;
43118;SDS011;28729;49.838;8.650;2022-08-03T22:30:07;6.20;;;2.45;;
43118;SDS011;28729;49.838;8.650;2022-08-03T22:34:13;4.28;;;2.42;;
43118;SDS011;28729;49.838;8.650;2022-08-03T22:38:16;3.17;;;2.60;;
43118;SDS011;28729;49.838;8.650;2022-08-03T22:42:19;4.63;;;2.80;;
43118;SDS011;28729;49.838;8.650;2022-08-03T22:46:22;3.80;;;2.50;;
43118;SDS011;28729;49.838;8.650;2022-08-03T22:50:28;4.25;;;2.60;;
43118;SDS011;28729;49.838;8.650;2022-08-03T22:54:34;2.50;;;2.10;;
43118;SDS011;28729;49.838;8.650;2022-08-03T22:58:36;4.32;;;2.60;;
43118;SDS011;28729;49.838;8.650;2022-08-03T23:02:38;4.30;;;2.43;;
43118;SDS011;28729;49.838;8.650;2022-08-03T23:06:42;5.25;;;2.67;;
43118;SDS011;28729;49.838;8.650;2022-08-03T23:10:49;3.38;;;2.53;;
43118;SDS011;28729;49.838;8.650;2022-08-03T23:14:53;2.83;;;2.42;;
43118;SDS011;28729;49.838;8.650;2022-08-03T23:18:57;5.72;;;2.85;;
43118;SDS011;28729;49.838;8.650;2022-08-03T23:22:59;4.57;;;2.70;;
43118;SDS011;28729;49.838;8.650;2022-08-03T23:27:02;4.75;;;2.70;;
43118;SDS011;28729;49.838;8.650;2022-08-03T23:31:05;6.10;;;3.17;;
43118;SDS011;28729;49.838;8.650;2022-08-03T23:35:08;3.83;;;2.78;;
43118;SDS011;28729;49.838;8.650;2022-08-03T23:39:49;4.07;;;2.58;;
43118;SDS011;28729;49.838;8.650;2022-08-03T23:43:53;4.30;;;3.00;;
43118;SDS011;28729;49.838;8.650;2022-08-03T23:47:56;4.72;;;2.92;;
43118;SDS011;28729;49.838;8.650;2022-08-03T23:52:02;3.97;;;2.40;;
